sensor_id;sensor_type;location;lat;lon;timestamp;temperature;humidity
15105;DHT22;7653;48.994;9.212;2023-04-06T00:01:45;0.40;37.90
15105;DHT22;7653;48.994;9.212;2023-04-06T00:04:12;0.30;38.50
15105;DHT22;7653;48.994;9.212;2023-04-06T00:06:37;0.30;38.40
15105;DHT22;7653;48.994;9.212;2023-04-06T00:09:03;0.40;38.60
15105;DHT22;7653;48.994;9.212;2023-04-06T00:11:29;0.30;39.60
15105;DHT22;7653;48.994;9.212;2023-04-06T00:13:54;0.40;40.60
15105;DHT22;7653;48.994;9.212;2023-04-06T00:16:20;0.60;40.10
15105;DHT22;7653;48.994;9.212;2023-04-06T00:18:46;0.60;38.70
15105;DHT22;7653;48.994;9.212;2023-04-06T00:21:13;0.20;39.70
15105;DHT22;7653;48.994;9.212;2023-04-06T00:23:39;0.20;41.20
15105;DHT22;7653;48.994;9.212;2023-04-06T00:26:06;0.10;43.10
15105;DHT22;7653;48.994;9.212;2023-04-06T00:28:31;0.20;43.20
15105;DHT22;7653;48.994;9.212;2023-04-06T00:30:57;0.30;43.30
15105;DHT22;7653;48.994;9.212;2023-04-06T00:33:23;0.30;42.50
15105;DHT22;7653;48.994;9.212;2023-04-06T00:35:49;-0.40;44.10
15105;DHT22;7653;48.994;9.212;2023-04-06T00:38:15;-0.30;46.30
15105;DHT22;7653;48.994;9.212;2023-04-06T00:40:41;-0.20;46.30
15105;DHT22;7653;48.994;9.212;2023-04-06T00:43:10;0.10;46.20
15105;DHT22;7653;48.994;9.212;2023-04-06T00:45:38;0.30;45.70
15105;DHT22;7653;48.994;9.212;2023-04-06T00:48:05;0.40;43.50
15105;DHT22;7653;48.994;9.212;2023-04-06T00:50:31;0.00;43.00
15105;DHT22;7653;48.994;9.212;2023-04-06T00:52:56;-0.10;45.80
15105;DHT22;7653;48.994;9.212;2023-04-06T00:55:22;-0.10;46.70
15105;DHT22;7653;48.994;9.212;2023-04-06T00:57:48;0.10;47.00
15105;DHT22;7653;48.994;9.212;2023-04-06T01:00:16;0.20;45.30
15105;DHT22;7653;48.994;9.212;2023-04-06T01:02:42;0.20;44.00
15105;DHT22;7653;48.994;9.212;2023-04-06T01:05:08;-0.10;44.80
15105;DHT22;7653;48.994;9.212;2023-04-06T01:07:33;-0.20;46.00
15105;DHT22;7653;48.994;9.212;2023-04-06T01:09:59;0.00;47.70
15105;DHT22;7653;48.994;9.212;2023-04-06T01:12:25;0.10;46.80
15105;DHT22;7653;48.994;9.212;2023-04-06T01:14:50;0.10;46.60
15105;DHT22;7653;48.994;9.212;2023-04-06T01:17:16;0.20;45.40
15105;DHT22;7653;48.994;9.212;2023-04-06T01:19:42;-0.10;45.70
15105;DHT22;7653;48.994;9.212;2023-04-06T01:22:08;-0.30;46.30
15105;DHT22;7653;48.994;9.212;2023-04-06T01:24:34;-0.30;47.50
15105;DHT22;7653;48.994;9.212;2023-04-06T01:26:59;-0.30;47.50
15105;DHT22;7653;48.994;9.212;2023-04-06T01:29:26;-0.30;47.50
15105;DHT22;7653;48.994;9.212;2023-04-06T01:31:52;-0.20;48.30
15105;DHT22;7653;48.994;9.212;2023-04-06T01:34:17;-0.20;47.10
15105;DHT22;7653;48.994;9.212;2023-04-06T01:36:43;-0.40;46.70
15105;DHT22;7653;48.994;9.212;2023-04-06T01:39:09;-0.50;48.60
15105;DHT22;7653;48.994;9.212;2023-04-06T01:41:35;-0.40;49.70
15105;DHT22;7653;48.994;9.212;2023-04-06T01:44:02;-0.40;49.80
15105;DHT22;7653;48.994;9.212;2023-04-06T01:46:27;-0.30;50.80
15105;DHT22;7653;48.994;9.212;2023-04-06T01:48:53;-0.20;50.40
15105;DHT22;7653;48.994;9.212;2023-04-06T01:51:19;-0.20;49.00
15105;DHT22;7653;48.994;9.212;2023-04-06T01:53:45;-0.20;47.60
15105;DHT22;7653;48.994;9.212;2023-04-06T01:56:10;-0.20;48.10
15105;DHT22;7653;48.994;9.212;2023-04-06T01:58:36;-0.30;48.40
15105;DHT22;7653;48.994;9.212;2023-04-06T02:01:02;-0.40;48.70
15105;DHT22;7653;48.994;9.212;2023-04-06T02:03:28;-0.60;49.40
15105;DHT22;7653;48.994;9.212;2023-04-06T02:05:53;-0.70;50.80
15105;DHT22;7653;48.994;9.212;2023-04-06T02:08:19;-0.80;51.80
15105;DHT22;7653;48.994;9.212;2023-04-06T02:10:45;-0.60;52.00
15105;DHT22;7653;48.994;9.212;2023-04-06T02:13:10;-0.60;52.00
15105;DHT22;7653;48.994;9.212;2023-04-06T02:15:36;-0.60;51.70
15105;DHT22;7653;48.994;9.212;2023-04-06T02:18:02;-0.50;50.90
15105;DHT22;7653;48.994;9.212;2023-04-06T02:20:27;-0.30;50.40
15105;DHT22;7653;48.994;9.212;2023-04-06T02:22:53;-0.30;49.60
15105;DHT22;7653;48.994;9.212;2023-04-06T02:25:18;-0.20;49.60
15105;DHT22;7653;48.994;9.212;2023-04-06T02:27:44;-0.10;49.80
15105;DHT22;7653;48.994;9.212;2023-04-06T02:30:10;0.00;49.10
15105;DHT22;7653;48.994;9.212;2023-04-06T02:32:36;0.00;48.20
15105;DHT22;7653;48.994;9.212;2023-04-06T02:35:02;-0.20;49.00
15105;DHT22;7653;48.994;9.212;2023-04-06T02:37:28;-0.10;50.40
15105;DHT22;7653;48.994;9.212;2023-04-06T02:39:53;0.00;51.90
15105;DHT22;7653;48.994;9.212;2023-04-06T02:42:19;0.10;51.20
15105;DHT22;7653;48.994;9.212;2023-04-06T02:44:45;0.20;50.90
15105;DHT22;7653;48.994;9.212;2023-04-06T02:47:11;0.20;50.30
15105;DHT22;7653;48.994;9.212;2023-04-06T02:49:37;0.20;49.70
15105;DHT22;7653;48.994;9.212;2023-04-06T02:52:03;0.20;50.20
15105;DHT22;7653;48.994;9.212;2023-04-06T02:54:32;0.30;50.10
15105;DHT22;7653;48.994;9.212;2023-04-06T02:56:57;0.30;49.80
15105;DHT22;7653;48.994;9.212;2023-04-06T02:59:23;0.30;49.50
15105;DHT22;7653;48.994;9.212;2023-04-06T03:01:49;0.20;49.80
15105;DHT22;7653;48.994;9.212;2023-04-06T03:04:14;0.20;50.10
15105;DHT22;7653;48.994;9.212;2023-04-06T03:06:40;0.00;50.20
15105;DHT22;7653;48.994;9.212;2023-04-06T03:09:06;0.00;51.50
15105;DHT22;7653;48.994;9.212;2023-04-06T03:11:32;0.10;52.50
15105;DHT22;7653;48.994;9.212;2023-04-06T03:13:58;0.20;52.60
15105;DHT22;7653;48.994;9.212;2023-04-06T03:16:24;0.10;51.00
15105;DHT22;7653;48.994;9.212;2023-04-06T03:18:50;0.00;52.20
15105;DHT22;7653;48.994;9.212;2023-04-06T03:21:16;0.10;52.50
15105;DHT22;7653;48.994;9.212;2023-04-06T03:23:42;0.10;52.50
15105;DHT22;7653;48.994;9.212;2023-04-06T03:26:08;0.10;51.50
15105;DHT22;7653;48.994;9.212;2023-04-06T03:28:33;0.00;52.40
15105;DHT22;7653;48.994;9.212;2023-04-06T03:30:59;-0.10;52.40
15105;DHT22;7653;48.994;9.212;2023-04-06T03:33:25;-0.20;53.30
15105;DHT22;7653;48.994;9.212;2023-04-06T03:35:54;0.00;53.50
15105;DHT22;7653;48.994;9.212;2023-04-06T03:38:20;0.00;52.50
15105;DHT22;7653;48.994;9.212;2023-04-06T03:40:45;-0.10;52.40
15105;DHT22;7653;48.994;9.212;2023-04-06T03:43:11;-0.10;52.40
15105;DHT22;7653;48.994;9.212;2023-04-06T03:45:37;-0.20;52.90
15105;DHT22;7653;48.994;9.212;2023-04-06T03:48:03;-0.20;53.60
15105;DHT22;7653;48.994;9.212;2023-04-06T03:50:29;-0.10;53.40
15105;DHT22;7653;48.994;9.212;2023-04-06T03:52:54;-0.10;52.40
15105;DHT22;7653;48.994;9.212;2023-04-06T03:55:20;-0.10;52.40
15105;DHT22;7653;48.994;9.212;2023-04-06T03:57:46;-0.10;52.80
15105;DHT22;7653;48.994;9.212;2023-04-06T04:00:12;-0.10;52.60
15105;DHT22;7653;48.994;9.212;2023-04-06T04:02:38;-0.20;52.30
15105;DHT22;7653;48.994;9.212;2023-04-06T04:05:04;-0.50;52.00
15105;DHT22;7653;48.994;9.212;2023-04-06T04:07:30;-0.50;54.30
15105;DHT22;7653;48.994;9.212;2023-04-06T04:09:56;-0.30;54.00
15105;DHT22;7653;48.994;9.212;2023-04-06T04:12:22;-0.30;52.20
15105;DHT22;7653;48.994;9.212;2023-04-06T04:14:47;-0.30;52.20
15105;DHT22;7653;48.994;9.212;2023-04-06T04:17:13;-0.30;52.40
15105;DHT22;7653;48.994;9.212;2023-04-06T04:19:40;-0.40;52.10
15105;DHT22;7653;48.994;9.212;2023-04-06T04:22:06;-0.40;52.30
15105;DHT22;7653;48.994;9.212;2023-04-06T04:24:32;-0.60;53.80
15105;DHT22;7653;48.994;9.212;2023-04-06T04:26:58;-0.60;54.60
15105;DHT22;7653;48.994;9.212;2023-04-06T04:29:26;-0.60;55.30
15105;DHT22;7653;48.994;9.212;2023-04-06T04:31:51;-0.50;55.10
15105;DHT22;7653;48.994;9.212;2023-04-06T04:34:18;-0.40;54.70
15105;DHT22;7653;48.994;9.212;2023-04-06T04:36:46;-0.50;54.20
15105;DHT22;7653;48.994;9.212;2023-04-06T04:39:11;-0.50;53.60
15105;DHT22;7653;48.994;9.212;2023-04-06T04:41:37;-0.40;53.20
15105;DHT22;7653;48.994;9.212;2023-04-06T04:44:03;-0.50;52.70
15105;DHT22;7653;48.994;9.212;2023-04-06T04:46:29;-0.50;52.30
15105;DHT22;7653;48.994;9.212;2023-04-06T04:48:55;-0.50;52.00
15105;DHT22;7653;48.994;9.212;2023-04-06T04:51:20;-0.70;51.90
15105;DHT22;7653;48.994;9.212;2023-04-06T04:53:46;-0.70;53.00
15105;DHT22;7653;48.994;9.212;2023-04-06T04:56:12;-0.90;53.70
15105;DHT22;7653;48.994;9.212;2023-04-06T04:58:37;-1.00;54.90
15105;DHT22;7653;48.994;9.212;2023-04-06T05:01:03;-1.00;56.60
15105;DHT22;7653;48.994;9.212;2023-04-06T05:03:29;-1.00;56.10
15105;DHT22;7653;48.994;9.212;2023-04-06T05:05:55;-1.00;56.20
15105;DHT22;7653;48.994;9.212;2023-04-06T05:08:21;-0.90;57.30
15105;DHT22;7653;48.994;9.212;2023-04-06T05:10:47;-1.00;57.00
15105;DHT22;7653;48.994;9.212;2023-04-06T05:13:14;-1.20;57.00
15105;DHT22;7653;48.994;9.212;2023-04-06T05:15:40;-1.00;58.10
15105;DHT22;7653;48.994;9.212;2023-04-06T05:18:06;-0.80;58.30
15105;DHT22;7653;48.994;9.212;2023-04-06T05:20:32;-0.70;57.20
15105;DHT22;7653;48.994;9.212;2023-04-06T05:22:58;-0.60;56.10
15105;DHT22;7653;48.994;9.212;2023-04-06T05:25:24;-0.60;55.40
15105;DHT22;7653;48.994;9.212;2023-04-06T05:27:50;-0.60;54.60
15105;DHT22;7653;48.994;9.212;2023-04-06T05:30:16;-0.60;54.10
15105;DHT22;7653;48.994;9.212;2023-04-06T05:32:42;-0.70;53.70
15105;DHT22;7653;48.994;9.212;2023-04-06T05:35:10;-0.80;54.40
15105;DHT22;7653;48.994;9.212;2023-04-06T05:37:36;-0.70;55.00
15105;DHT22;7653;48.994;9.212;2023-04-06T05:40:02;-0.60;54.60
15105;DHT22;7653;48.994;9.212;2023-04-06T05:42:28;-0.60;54.70
15105;DHT22;7653;48.994;9.212;2023-04-06T05:45:02;-0.50;54.20
15105;DHT22;7653;48.994;9.212;2023-04-06T05:47:27;-0.50;54.30
15105;DHT22;7653;48.994;9.212;2023-04-06T05:49:53;-0.40;54.50
15105;DHT22;7653;48.994;9.212;2023-04-06T05:52:19;-0.40;54.20
15105;DHT22;7653;48.994;9.212;2023-04-06T05:54:44;-0.30;52.70
15105;DHT22;7653;48.994;9.212;2023-04-06T05:57:10;-0.20;52.50
15105;DHT22;7653;48.994;9.212;2023-04-06T05:59:36;-0.10;52.40
15105;DHT22;7653;48.994;9.212;2023-04-06T06:02:01;0.00;50.80
15105;DHT22;7653;48.994;9.212;2023-04-06T06:04:27;0.10;50.70
15105;DHT22;7653;48.994;9.212;2023-04-06T06:06:53;0.10;50.30
15105;DHT22;7653;48.994;9.212;2023-04-06T06:09:18;0.20;49.50
15105;DHT22;7653;48.994;9.212;2023-04-06T06:11:44;0.30;48.80
15105;DHT22;7653;48.994;9.212;2023-04-06T06:14:10;0.40;48.10
15105;DHT22;7653;48.994;9.212;2023-04-06T06:16:35;0.50;47.50
15105;DHT22;7653;48.994;9.212;2023-04-06T06:19:01;0.60;47.20
15105;DHT22;7653;48.994;9.212;2023-04-06T06:21:27;0.60;47.10
15105;DHT22;7653;48.994;9.212;2023-04-06T06:23:53;0.80;46.90
15105;DHT22;7653;48.994;9.212;2023-04-06T06:26:20;0.80;47.00
15105;DHT22;7653;48.994;9.212;2023-04-06T06:28:45;0.90;45.40
15105;DHT22;7653;48.994;9.212;2023-04-06T06:31:11;0.90;45.10
15105;DHT22;7653;48.994;9.212;2023-04-06T06:33:37;1.10;43.90
15105;DHT22;7653;48.994;9.212;2023-04-06T06:36:03;1.20;43.20
15105;DHT22;7653;48.994;9.212;2023-04-06T06:38:29;1.40;42.90
15105;DHT22;7653;48.994;9.212;2023-04-06T06:40:54;1.60;41.20
15105;DHT22;7653;48.994;9.212;2023-04-06T06:43:20;1.80;40.10
15105;DHT22;7653;48.994;9.212;2023-04-06T06:45:46;1.90;39.60
15105;DHT22;7653;48.994;9.212;2023-04-06T06:48:11;1.90;39.00
15105;DHT22;7653;48.994;9.212;2023-04-06T06:50:37;1.90;39.70
15105;DHT22;7653;48.994;9.212;2023-04-06T06:53:03;2.10;39.40
15105;DHT22;7653;48.994;9.212;2023-04-06T06:55:29;2.00;38.40
15105;DHT22;7653;48.994;9.212;2023-04-06T06:57:54;2.10;38.50
15105;DHT22;7653;48.994;9.212;2023-04-06T07:00:20;2.30;38.60
15105;DHT22;7653;48.994;9.212;2023-04-06T07:02:47;2.50;38.10
15105;DHT22;7653;48.994;9.212;2023-04-06T07:05:13;2.70;35.90
15105;DHT22;7653;48.994;9.212;2023-04-06T07:07:39;2.90;35.60
15105;DHT22;7653;48.994;9.212;2023-04-06T07:10:05;2.90;34.80
15105;DHT22;7653;48.994;9.212;2023-04-06T07:12:31;3.00;34.30
15105;DHT22;7653;48.994;9.212;2023-04-06T07:14:56;3.10;34.00
15105;DHT22;7653;48.994;9.212;2023-04-06T07:17:22;3.10;32.80
15105;DHT22;7653;48.994;9.212;2023-04-06T07:19:48;3.20;32.10
15105;DHT22;7653;48.994;9.212;2023-04-06T07:22:13;3.40;31.10
15105;DHT22;7653;48.994;9.212;2023-04-06T07:24:39;3.60;31.20
15105;DHT22;7653;48.994;9.212;2023-04-06T07:27:05;3.70;30.70
15105;DHT22;7653;48.994;9.212;2023-04-06T07:29:31;3.80;30.10
15105;DHT22;7653;48.994;9.212;2023-04-06T07:31:57;4.00;30.00
15105;DHT22;7653;48.994;9.212;2023-04-06T07:34:22;4.10;29.40
15105;DHT22;7653;48.994;9.212;2023-04-06T07:36:48;4.10;28.50
15105;DHT22;7653;48.994;9.212;2023-04-06T07:39:14;4.20;29.00
15105;DHT22;7653;48.994;9.212;2023-04-06T07:41:40;4.40;29.40
15105;DHT22;7653;48.994;9.212;2023-04-06T07:44:06;4.50;29.70
15105;DHT22;7653;48.994;9.212;2023-04-06T07:46:32;4.50;28.90
15105;DHT22;7653;48.994;9.212;2023-04-06T07:48:59;4.70;28.50
15105;DHT22;7653;48.994;9.212;2023-04-06T07:51:26;4.70;27.90
15105;DHT22;7653;48.994;9.212;2023-04-06T07:53:52;4.80;27.90
15105;DHT22;7653;48.994;9.212;2023-04-06T07:56:18;4.90;27.60
15105;DHT22;7653;48.994;9.212;2023-04-06T07:58:44;5.20;26.90
15105;DHT22;7653;48.994;9.212;2023-04-06T08:01:09;5.30;26.60
15105;DHT22;7653;48.994;9.212;2023-04-06T08:03:36;5.40;25.90
15105;DHT22;7653;48.994;9.212;2023-04-06T08:06:02;5.60;24.60
15105;DHT22;7653;48.994;9.212;2023-04-06T08:08:28;5.70;24.70
15105;DHT22;7653;48.994;9.212;2023-04-06T08:10:54;5.70;24.50
15105;DHT22;7653;48.994;9.212;2023-04-06T08:13:19;5.90;24.70
15105;DHT22;7653;48.994;9.212;2023-04-06T08:15:45;6.00;24.10
15105;DHT22;7653;48.994;9.212;2023-04-06T08:18:11;6.10;24.70
15105;DHT22;7653;48.994;9.212;2023-04-06T08:20:37;6.20;23.80
15105;DHT22;7653;48.994;9.212;2023-04-06T08:23:03;6.40;23.40
15105;DHT22;7653;48.994;9.212;2023-04-06T08:25:29;6.50;23.40
15105;DHT22;7653;48.994;9.212;2023-04-06T08:27:55;6.60;23.10
15105;DHT22;7653;48.994;9.212;2023-04-06T08:30:21;6.70;22.70
15105;DHT22;7653;48.994;9.212;2023-04-06T08:32:47;6.90;22.20
15105;DHT22;7653;48.994;9.212;2023-04-06T08:35:12;7.10;21.80
15105;DHT22;7653;48.994;9.212;2023-04-06T08:37:39;7.20;21.50
15105;DHT22;7653;48.994;9.212;2023-04-06T08:40:05;7.20;20.60
15105;DHT22;7653;48.994;9.212;2023-04-06T08:42:39;7.30;21.50
15105;DHT22;7653;48.994;9.212;2023-04-06T08:45:07;7.40;19.80
15105;DHT22;7653;48.994;9.212;2023-04-06T08:47:34;7.40;20.30
15105;DHT22;7653;48.994;9.212;2023-04-06T08:50:04;7.60;20.80
15105;DHT22;7653;48.994;9.212;2023-04-06T08:52:32;7.80;20.50
15105;DHT22;7653;48.994;9.212;2023-04-06T08:54:58;7.90;19.10
15105;DHT22;7653;48.994;9.212;2023-04-06T08:57:24;8.10;19.60
15105;DHT22;7653;48.994;9.212;2023-04-06T08:59:51;8.20;18.50
15105;DHT22;7653;48.994;9.212;2023-04-06T09:02:18;8.30;18.50
15105;DHT22;7653;48.994;9.212;2023-04-06T09:04:47;8.40;18.50
15105;DHT22;7653;48.994;9.212;2023-04-06T09:07:14;8.50;18.00
15105;DHT22;7653;48.994;9.212;2023-04-06T09:09:40;8.60;15.90
15105;DHT22;7653;48.994;9.212;2023-04-06T09:12:25;8.70;14.20
15105;DHT22;7653;48.994;9.212;2023-04-06T09:14:52;8.80;14.20
15105;DHT22;7653;48.994;9.212;2023-04-06T09:17:22;9.00;13.50
15105;DHT22;7653;48.994;9.212;2023-04-06T09:19:49;9.10;14.40
15105;DHT22;7653;48.994;9.212;2023-04-06T09:22:15;9.20;14.50
15105;DHT22;7653;48.994;9.212;2023-04-06T09:24:48;9.30;14.50
15105;DHT22;7653;48.994;9.212;2023-04-06T09:27:15;9.60;13.50
15105;DHT22;7653;48.994;9.212;2023-04-06T09:29:41;9.60;13.10
15105;DHT22;7653;48.994;9.212;2023-04-06T09:32:08;9.80;12.40
15105;DHT22;7653;48.994;9.212;2023-04-06T09:34:38;9.90;12.50
15105;DHT22;7653;48.994;9.212;2023-04-06T09:37:15;9.80;12.00
15105;DHT22;7653;48.994;9.212;2023-04-06T09:39:40;9.90;13.20
15105;DHT22;7653;48.994;9.212;2023-04-06T09:42:06;10.00;11.20
15105;DHT22;7653;48.994;9.212;2023-04-06T09:44:32;10.00;10.50
15105;DHT22;7653;48.994;9.212;2023-04-06T09:46:58;10.00;9.40
15105;DHT22;7653;48.994;9.212;2023-04-06T09:49:25;9.90;10.70
15105;DHT22;7653;48.994;9.212;2023-04-06T09:52:03;10.00;10.10
15105;DHT22;7653;48.994;9.212;2023-04-06T09:54:30;10.20;9.50
15105;DHT22;7653;48.994;9.212;2023-04-06T09:59:47;10.40;6.00
15105;DHT22;7653;48.994;9.212;2023-04-06T10:05:02;10.40;6.00
15105;DHT22;7653;48.994;9.212;2023-04-06T10:07:31;10.40;6.00
15105;DHT22;7653;48.994;9.212;2023-04-06T10:09:58;10.60;8.00
15105;DHT22;7653;48.994;9.212;2023-04-06T10:12:24;10.70;6.20
15105;DHT22;7653;48.994;9.212;2023-04-06T10:14:50;10.80;5.60
15105;DHT22;7653;48.994;9.212;2023-04-06T10:17:16;10.70;5.50
15105;DHT22;7653;48.994;9.212;2023-04-06T10:20:10;10.80;4.80
15105;DHT22;7653;48.994;9.212;2023-04-06T10:25:29;11.10;3.60
15105;DHT22;7653;48.994;9.212;2023-04-06T10:28:09;11.10;4.50
15105;DHT22;7653;48.994;9.212;2023-04-06T10:30:42;11.20;4.30
15105;DHT22;7653;48.994;9.212;2023-04-06T10:33:16;11.40;3.50
15105;DHT22;7653;48.994;9.212;2023-04-06T10:35:42;11.60;2.20
15105;DHT22;7653;48.994;9.212;2023-04-06T10:38:08;11.70;2.50
15105;DHT22;7653;48.994;9.212;2023-04-06T10:40:38;11.80;1.00
15105;DHT22;7653;48.994;9.212;2023-04-06T10:43:21;11.80;1.00
15105;DHT22;7653;48.994;9.212;2023-04-06T10:45:59;11.80;2.60
15105;DHT22;7653;48.994;9.212;2023-04-06T10:48:45;12.10;1.00
15105;DHT22;7653;48.994;9.212;2023-04-06T10:51:17;11.80;1.00
15105;DHT22;7653;48.994;9.212;2023-04-06T10:53:45;11.90;1.00
15105;DHT22;7653;48.994;9.212;2023-04-06T10:56:13;12.00;1.00
15105;DHT22;7653;48.994;9.212;2023-04-06T10:58:47;12.20;1.90
15105;DHT22;7653;48.994;9.212;2023-04-06T11:01:21;12.00;2.60
15105;DHT22;7653;48.994;9.212;2023-04-06T11:03:49;12.30;2.40
15105;DHT22;7653;48.994;9.212;2023-04-06T11:06:29;12.00;1.00
15105;DHT22;7653;48.994;9.212;2023-04-06T11:08:57;12.20;1.00
15105;DHT22;7653;48.994;9.212;2023-04-06T11:11:25;12.20;1.00
15105;DHT22;7653;48.994;9.212;2023-04-06T11:13:59;11.60;1.00
15105;DHT22;7653;48.994;9.212;2023-04-06T11:16:26;11.80;1.00
15105;DHT22;7653;48.994;9.212;2023-04-06T11:18:57;12.30;1.00
15105;DHT22;7653;48.994;9.212;2023-04-06T11:26:30;12.50;1.90
15105;DHT22;7653;48.994;9.212;2023-04-06T11:28:56;12.20;1.00
15105;DHT22;7653;48.994;9.212;2023-04-06T11:31:25;12.00;1.00
15105;DHT22;7653;48.994;9.212;2023-04-06T11:33:58;12.00;1.00
15105;DHT22;7653;48.994;9.212;2023-04-06T11:36:27;12.30;1.00
15105;DHT22;7653;48.994;9.212;2023-04-06T11:38:53;12.20;1.00
15105;DHT22;7653;48.994;9.212;2023-04-06T11:41:23;12.30;1.00
15105;DHT22;7653;48.994;9.212;2023-04-06T11:43:50;12.50;1.00
15105;DHT22;7653;48.994;9.212;2023-04-06T11:46:18;12.60;1.00
15105;DHT22;7653;48.994;9.212;2023-04-06T11:48:46;12.90;1.00
15105;DHT22;7653;48.994;9.212;2023-04-06T11:51:12;13.20;1.00
15105;DHT22;7653;48.994;9.212;2023-04-06T11:53:46;13.00;1.00
15105;DHT22;7653;48.994;9.212;2023-04-06T11:56:31;13.20;1.00
15105;DHT22;7653;48.994;9.212;2023-04-06T11:58:58;13.00;1.00
15105;DHT22;7653;48.994;9.212;2023-04-06T12:01:25;13.20;1.00
15105;DHT22;7653;48.994;9.212;2023-04-06T12:03:51;13.30;1.00
15105;DHT22;7653;48.994;9.212;2023-04-06T12:06:18;13.50;1.00
15105;DHT22;7653;48.994;9.212;2023-04-06T12:08:44;13.50;1.00
15105;DHT22;7653;48.994;9.212;2023-04-06T12:11:12;13.60;1.00
15105;DHT22;7653;48.994;9.212;2023-04-06T12:13:38;14.00;1.00
15105;DHT22;7653;48.994;9.212;2023-04-06T12:16:04;13.40;1.00
15105;DHT22;7653;48.994;9.212;2023-04-06T12:18:32;13.60;1.00
15105;DHT22;7653;48.994;9.212;2023-04-06T12:20:57;13.20;1.00
15105;DHT22;7653;48.994;9.212;2023-04-06T12:23:23;13.50;1.00
15105;DHT22;7653;48.994;9.212;2023-04-06T12:25:49;13.20;1.00
15105;DHT22;7653;48.994;9.212;2023-04-06T12:28:15;12.80;1.00
15105;DHT22;7653;48.994;9.212;2023-04-06T12:30:41;12.80;1.00
15105;DHT22;7653;48.994;9.212;2023-04-06T12:33:06;12.60;1.00
15105;DHT22;7653;48.994;9.212;2023-04-06T12:35:36;12.90;1.00
15105;DHT22;7653;48.994;9.212;2023-04-06T12:38:03;13.00;1.00
15105;DHT22;7653;48.994;9.212;2023-04-06T12:40:28;13.00;1.00
15105;DHT22;7653;48.994;9.212;2023-04-06T12:42:54;13.10;1.00
15105;DHT22;7653;48.994;9.212;2023-04-06T12:45:20;13.50;1.00
15105;DHT22;7653;48.994;9.212;2023-04-06T12:47:46;14.00;1.00
15105;DHT22;7653;48.994;9.212;2023-04-06T12:50:12;14.10;1.00
15105;DHT22;7653;48.994;9.212;2023-04-06T12:52:37;13.70;1.00
15105;DHT22;7653;48.994;9.212;2023-04-06T12:55:03;13.90;1.00
15105;DHT22;7653;48.994;9.212;2023-04-06T12:57:30;14.50;1.00
15105;DHT22;7653;48.994;9.212;2023-04-06T12:59:56;15.20;1.00
15105;DHT22;7653;48.994;9.212;2023-04-06T13:02:22;15.90;1.00
15105;DHT22;7653;48.994;9.212;2023-04-06T13:04:49;16.00;1.00
15105;DHT22;7653;48.994;9.212;2023-04-06T13:07:15;15.10;1.00
15105;DHT22;7653;48.994;9.212;2023-04-06T13:09:41;15.60;1.00
15105;DHT22;7653;48.994;9.212;2023-04-06T13:12:07;16.10;1.00
15105;DHT22;7653;48.994;9.212;2023-04-06T13:14:33;16.30;1.00
15105;DHT22;7653;48.994;9.212;2023-04-06T13:16:59;15.80;1.00
15105;DHT22;7653;48.994;9.212;2023-04-06T13:19:25;15.70;1.00
15105;DHT22;7653;48.994;9.212;2023-04-06T13:21:52;15.70;1.00
15105;DHT22;7653;48.994;9.212;2023-04-06T13:24:17;15.10;1.00
15105;DHT22;7653;48.994;9.212;2023-04-06T13:26:45;15.00;1.00
15105;DHT22;7653;48.994;9.212;2023-04-06T13:29:10;15.80;1.00
15105;DHT22;7653;48.994;9.212;2023-04-06T13:31:36;16.80;1.00
15105;DHT22;7653;48.994;9.212;2023-04-06T13:34:02;16.60;1.00
15105;DHT22;7653;48.994;9.212;2023-04-06T13:36:28;16.10;1.00
15105;DHT22;7653;48.994;9.212;2023-04-06T13:38:53;15.80;1.00
15105;DHT22;7653;48.994;9.212;2023-04-06T13:41:22;15.70;1.00
15105;DHT22;7653;48.994;9.212;2023-04-06T13:43:48;16.20;1.00
15105;DHT22;7653;48.994;9.212;2023-04-06T13:46:14;15.90;1.00
15105;DHT22;7653;48.994;9.212;2023-04-06T13:48:41;16.50;1.00
15105;DHT22;7653;48.994;9.212;2023-04-06T13:51:12;16.50;1.00
15105;DHT22;7653;48.994;9.212;2023-04-06T13:53:39;16.60;1.00
15105;DHT22;7653;48.994;9.212;2023-04-06T13:56:05;15.30;1.00
15105;DHT22;7653;48.994;9.212;2023-04-06T13:58:31;15.90;1.00
15105;DHT22;7653;48.994;9.212;2023-04-06T14:01:07;15.70;1.00
15105;DHT22;7653;48.994;9.212;2023-04-06T14:03:35;15.30;1.00
15105;DHT22;7653;48.994;9.212;2023-04-06T14:06:01;14.70;1.00
15105;DHT22;7653;48.994;9.212;2023-04-06T14:08:26;14.70;1.00
15105;DHT22;7653;48.994;9.212;2023-04-06T14:10:52;14.80;1.00
15105;DHT22;7653;48.994;9.212;2023-04-06T14:13:19;15.30;1.00
15105;DHT22;7653;48.994;9.212;2023-04-06T14:15:45;15.40;1.00
15105;DHT22;7653;48.994;9.212;2023-04-06T14:18:11;15.60;1.00
15105;DHT22;7653;48.994;9.212;2023-04-06T14:20:37;16.00;1.00
15105;DHT22;7653;48.994;9.212;2023-04-06T14:23:03;16.10;1.00
15105;DHT22;7653;48.994;9.212;2023-04-06T14:25:29;17.00;1.00
15105;DHT22;7653;48.994;9.212;2023-04-06T14:27:59;16.70;1.00
15105;DHT22;7653;48.994;9.212;2023-04-06T14:30:25;16.10;1.00
15105;DHT22;7653;48.994;9.212;2023-04-06T14:32:51;16.10;1.00
15105;DHT22;7653;48.994;9.212;2023-04-06T14:35:17;16.80;1.00
15105;DHT22;7653;48.994;9.212;2023-04-06T14:37:42;17.90;1.00
15105;DHT22;7653;48.994;9.212;2023-04-06T14:40:08;18.50;1.00
15105;DHT22;7653;48.994;9.212;2023-04-06T14:42:35;17.20;1.00
15105;DHT22;7653;48.994;9.212;2023-04-06T14:45:02;17.50;1.00
15105;DHT22;7653;48.994;9.212;2023-04-06T14:47:27;16.80;1.00
15105;DHT22;7653;48.994;9.212;2023-04-06T14:49:53;17.50;1.00
15105;DHT22;7653;48.994;9.212;2023-04-06T14:52:19;16.70;1.00
15105;DHT22;7653;48.994;9.212;2023-04-06T14:54:45;17.20;1.00
15105;DHT22;7653;48.994;9.212;2023-04-06T14:57:10;17.70;1.00
15105;DHT22;7653;48.994;9.212;2023-04-06T14:59:36;17.60;1.00
15105;DHT22;7653;48.994;9.212;2023-04-06T15:02:02;18.30;1.00
15105;DHT22;7653;48.994;9.212;2023-04-06T15:04:29;18.80;1.00
15105;DHT22;7653;48.994;9.212;2023-04-06T15:06:55;18.80;1.00
15105;DHT22;7653;48.994;9.212;2023-04-06T15:09:20;18.30;1.00
15105;DHT22;7653;48.994;9.212;2023-04-06T15:11:46;17.10;1.00
15105;DHT22;7653;48.994;9.212;2023-04-06T15:14:12;17.40;1.00
15105;DHT22;7653;48.994;9.212;2023-04-06T15:16:38;17.60;1.00
15105;DHT22;7653;48.994;9.212;2023-04-06T15:19:03;18.00;1.00
15105;DHT22;7653;48.994;9.212;2023-04-06T15:21:29;17.10;1.00
15105;DHT22;7653;48.994;9.212;2023-04-06T15:23:56;16.50;1.00
15105;DHT22;7653;48.994;9.212;2023-04-06T15:26:22;16.10;1.00
15105;DHT22;7653;48.994;9.212;2023-04-06T15:28:47;16.60;1.00
15105;DHT22;7653;48.994;9.212;2023-04-06T15:31:18;17.10;1.00
15105;DHT22;7653;48.994;9.212;2023-04-06T15:33:45;17.60;1.00
15105;DHT22;7653;48.994;9.212;2023-04-06T15:36:31;17.60;1.00
15105;DHT22;7653;48.994;9.212;2023-04-06T15:38:57;17.00;1.00
15105;DHT22;7653;48.994;9.212;2023-04-06T15:41:23;16.70;1.00
15105;DHT22;7653;48.994;9.212;2023-04-06T15:43:51;16.80;1.00
15105;DHT22;7653;48.994;9.212;2023-04-06T15:46:17;16.40;1.00
15105;DHT22;7653;48.994;9.212;2023-04-06T15:48:43;16.20;1.00
15105;DHT22;7653;48.994;9.212;2023-04-06T15:51:09;16.50;1.00
15105;DHT22;7653;48.994;9.212;2023-04-06T15:53:35;16.40;1.00
15105;DHT22;7653;48.994;9.212;2023-04-06T15:56:01;15.10;1.00
15105;DHT22;7653;48.994;9.212;2023-04-06T15:58:28;14.80;1.00
15105;DHT22;7653;48.994;9.212;2023-04-06T16:00:54;14.60;1.00
15105;DHT22;7653;48.994;9.212;2023-04-06T16:03:20;14.60;1.00
15105;DHT22;7653;48.994;9.212;2023-04-06T16:05:46;14.50;1.00
15105;DHT22;7653;48.994;9.212;2023-04-06T16:08:12;14.70;1.00